sensor_id;sensor_type;location;lat;lon;timestamp;P1;durP1;ratioP1;P2;durP2;ratioP2
28481;SDS011;15703;49.588;6.260;2023-11-19T00:00:08;0.90;;;0.90;;
28481;SDS011;15703;49.588;6.260;2023-11-19T00:02:35;0.83;;;0.83;;
28481;SDS011;15703;49.588;6.260;2023-11-19T00:04:57;1.23;;;1.20;;
28481;SDS011;15703;49.588;6.260;2023-11-19T00:07:20;0.90;;;0.90;;
28481;SDS011;15703;49.588;6.260;2023-11-19T00:09:44;1.13;;;1.13;;
28481;SDS011;15703;49.588;6.260;2023-11-19T00:12:07;3.77;;;1.03;;
28481;SDS011;15703;49.588;6.260;2023-11-19T00:14:29;0.90;;;0.90;;
28481;SDS011;15703;49.588;6.260;2023-11-19T00:16:51;1.10;;;1.10;;
28481;SDS011;15703;49.588;6.260;2023-11-19T00:19:15;1.23;;;1.13;;
28481;SDS011;15703;49.588;6.260;2023-11-19T00:21:37;1.07;;;1.07;;
28481;SDS011;15703;49.588;6.260;2023-11-19T00:24:02;1.10;;;1.10;;
28481;SDS011;15703;49.588;6.260;2023-11-19T00:26:25;0.80;;;0.80;;
28481;SDS011;15703;49.588;6.260;2023-11-19T00:28:48;1.27;;;1.27;;
28481;SDS011;15703;49.588;6.260;2023-11-19T00:31:15;1.30;;;1.20;;
28481;SDS011;15703;49.588;6.260;2023-11-19T00:33:38;1.23;;;1.13;;
28481;SDS011;15703;49.588;6.260;2023-11-19T00:36:10;1.43;;;1.33;;
28481;SDS011;15703;49.588;6.260;2023-11-19T00:38:33;1.27;;;1.20;;
28481;SDS011;15703;49.588;6.260;2023-11-19T00:40:55;1.50;;;1.40;;
28481;SDS011;15703;49.588;6.260;2023-11-19T00:43:17;1.10;;;1.10;;
28481;SDS011;15703;49.588;6.260;2023-11-19T00:45:43;1.60;;;1.50;;
28481;SDS011;15703;49.588;6.260;2023-11-19T00:48:05;1.20;;;1.20;;
28481;SDS011;15703;49.588;6.260;2023-11-19T00:50:28;1.40;;;1.30;;
28481;SDS011;15703;49.588;6.260;2023-11-19T00:52:55;1.10;;;1.10;;
28481;SDS011;15703;49.588;6.260;2023-11-19T00:55:17;1.00;;;1.00;;
28481;SDS011;15703;49.588;6.260;2023-11-19T00:57:39;1.40;;;1.30;;
28481;SDS011;15703;49.588;6.260;2023-11-19T01:00:02;1.20;;;1.20;;
28481;SDS011;15703;49.588;6.260;2023-11-19T01:02:31;1.07;;;1.07;;
28481;SDS011;15703;49.588;6.260;2023-11-19T01:04:53;1.30;;;1.23;;
28481;SDS011;15703;49.588;6.260;2023-11-19T01:07:17;1.10;;;1.10;;
28481;SDS011;15703;49.588;6.260;2023-11-19T01:09:41;0.97;;;0.97;;
28481;SDS011;15703;49.588;6.260;2023-11-19T01:12:04;1.20;;;1.20;;
28481;SDS011;15703;49.588;6.260;2023-11-19T01:14:26;1.00;;;1.00;;
28481;SDS011;15703;49.588;6.260;2023-11-19T01:16:49;1.00;;;1.00;;
28481;SDS011;15703;49.588;6.260;2023-11-19T01:19:11;1.10;;;1.10;;
28481;SDS011;15703;49.588;6.260;2023-11-19T01:21:38;1.10;;;1.10;;
28481;SDS011;15703;49.588;6.260;2023-11-19T01:24:02;1.50;;;1.23;;
28481;SDS011;15703;49.588;6.260;2023-11-19T01:26:27;1.50;;;1.40;;
28481;SDS011;15703;49.588;6.260;2023-11-19T01:28:49;3.80;;;1.70;;
28481;SDS011;15703;49.588;6.260;2023-11-19T01:31:16;1.63;;;1.47;;
28481;SDS011;15703;49.588;6.260;2023-11-19T01:33:39;2.67;;;1.50;;
28481;SDS011;15703;49.588;6.260;2023-11-19T01:36:02;1.67;;;1.30;;
28481;SDS011;15703;49.588;6.260;2023-11-19T01:38:25;2.77;;;1.20;;
28481;SDS011;15703;49.588;6.260;2023-11-19T01:40:48;1.30;;;1.20;;
28481;SDS011;15703;49.588;6.260;2023-11-19T01:43:12;1.33;;;1.30;;
28481;SDS011;15703;49.588;6.260;2023-11-19T01:45:52;1.80;;;1.20;;
28481;SDS011;15703;49.588;6.260;2023-11-19T01:48:15;2.60;;;1.70;;
28481;SDS011;15703;49.588;6.260;2023-11-19T01:50:37;1.47;;;1.37;;
28481;SDS011;15703;49.588;6.260;2023-11-19T01:52:59;3.33;;;2.53;;
28481;SDS011;15703;49.588;6.260;2023-11-19T01:55:21;2.23;;;1.90;;
28481;SDS011;15703;49.588;6.260;2023-11-19T01:57:44;2.77;;;2.37;;
28481;SDS011;15703;49.588;6.260;2023-11-19T02:00:06;4.00;;;3.13;;
28481;SDS011;15703;49.588;6.260;2023-11-19T02:02:37;3.40;;;3.10;;
28481;SDS011;15703;49.588;6.260;2023-11-19T02:05:01;3.83;;;3.43;;
28481;SDS011;15703;49.588;6.260;2023-11-19T02:07:23;4.00;;;3.60;;
28481;SDS011;15703;49.588;6.260;2023-11-19T02:09:46;5.00;;;4.10;;
28481;SDS011;15703;49.588;6.260;2023-11-19T02:12:09;4.37;;;3.97;;
28481;SDS011;15703;49.588;6.260;2023-11-19T02:14:33;4.93;;;4.43;;
28481;SDS011;15703;49.588;6.260;2023-11-19T02:16:55;4.53;;;4.13;;
28481;SDS011;15703;49.588;6.260;2023-11-19T02:19:20;4.97;;;4.03;;
28481;SDS011;15703;49.588;6.260;2023-11-19T02:21:43;4.93;;;4.20;;
28481;SDS011;15703;49.588;6.260;2023-11-19T02:24:06;4.70;;;4.20;;
28481;SDS011;15703;49.588;6.260;2023-11-19T02:26:39;3.87;;;3.47;;
28481;SDS011;15703;49.588;6.260;2023-11-19T02:29:02;4.13;;;3.83;;
28481;SDS011;15703;49.588;6.260;2023-11-19T02:31:28;4.17;;;3.57;;
28481;SDS011;15703;49.588;6.260;2023-11-19T02:33:51;3.63;;;3.17;;
28481;SDS011;15703;49.588;6.260;2023-11-19T02:36:13;3.37;;;2.97;;
28481;SDS011;15703;49.588;6.260;2023-11-19T02:38:36;3.23;;;2.73;;
28481;SDS011;15703;49.588;6.260;2023-11-19T02:40:59;3.07;;;2.70;;
28481;SDS011;15703;49.588;6.260;2023-11-19T02:43:26;3.80;;;2.93;;
28481;SDS011;15703;49.588;6.260;2023-11-19T02:45:49;3.97;;;3.10;;
28481;SDS011;15703;49.588;6.260;2023-11-19T02:48:12;3.93;;;3.13;;
28481;SDS011;15703;49.588;6.260;2023-11-19T02:50:36;3.30;;;3.00;;
28481;SDS011;15703;49.588;6.260;2023-11-19T02:52:59;3.13;;;2.83;;
28481;SDS011;15703;49.588;6.260;2023-11-19T02:55:23;3.60;;;3.17;;
28481;SDS011;15703;49.588;6.260;2023-11-19T02:57:45;3.37;;;3.10;;
28481;SDS011;15703;49.588;6.260;2023-11-19T03:00:09;3.20;;;2.90;;
28481;SDS011;15703;49.588;6.260;2023-11-19T03:02:34;3.53;;;2.93;;
28481;SDS011;15703;49.588;6.260;2023-11-19T03:05:05;4.93;;;3.20;;
28481;SDS011;15703;49.588;6.260;2023-11-19T03:07:28;3.47;;;3.17;;
28481;SDS011;15703;49.588;6.260;2023-11-19T03:09:51;5.80;;;3.00;;
28481;SDS011;15703;49.588;6.260;2023-11-19T03:12:13;3.73;;;2.90;;
28481;SDS011;15703;49.588;6.260;2023-11-19T03:14:36;4.53;;;3.20;;
28481;SDS011;15703;49.588;6.260;2023-11-19T03:16:58;3.53;;;2.63;;
28481;SDS011;15703;49.588;6.260;2023-11-19T03:19:21;3.00;;;2.63;;
28481;SDS011;15703;49.588;6.260;2023-11-19T03:21:46;3.37;;;2.53;;
28481;SDS011;15703;49.588;6.260;2023-11-19T03:24:09;3.27;;;2.97;;
28481;SDS011;15703;49.588;6.260;2023-11-19T03:26:31;4.03;;;2.90;;
28481;SDS011;15703;49.588;6.260;2023-11-19T03:28:55;3.40;;;2.60;;
28481;SDS011;15703;49.588;6.260;2023-11-19T03:31:18;5.67;;;2.57;;
28481;SDS011;15703;49.588;6.260;2023-11-19T03:33:41;4.47;;;2.93;;
28481;SDS011;15703;49.588;6.260;2023-11-19T03:36:04;3.00;;;2.70;;
28481;SDS011;15703;49.588;6.260;2023-11-19T03:38:26;4.00;;;2.50;;
28481;SDS011;15703;49.588;6.260;2023-11-19T03:40:49;3.90;;;2.50;;
28481;SDS011;15703;49.588;6.260;2023-11-19T03:43:11;6.13;;;2.13;;
28481;SDS011;15703;49.588;6.260;2023-11-19T03:45:34;2.70;;;2.50;;
28481;SDS011;15703;49.588;6.260;2023-11-19T03:47:57;2.40;;;2.17;;
28481;SDS011;15703;49.588;6.260;2023-11-19T03:50:20;2.23;;;1.80;;
28481;SDS011;15703;49.588;6.260;2023-11-19T03:52:42;2.30;;;2.03;;
28481;SDS011;15703;49.588;6.260;2023-11-19T03:55:05;3.40;;;1.70;;
28481;SDS011;15703;49.588;6.260;2023-11-19T03:57:30;1.97;;;1.63;;
28481;SDS011;15703;49.588;6.260;2023-11-19T03:59:52;2.13;;;1.93;;
28481;SDS011;15703;49.588;6.260;2023-11-19T04:02:14;2.23;;;1.93;;
28481;SDS011;15703;49.588;6.260;2023-11-19T04:04:37;3.87;;;2.07;;
28481;SDS011;15703;49.588;6.260;2023-11-19T04:07:00;5.03;;;2.43;;
28481;SDS011;15703;49.588;6.260;2023-11-19T04:09:24;3.90;;;2.03;;
28481;SDS011;15703;49.588;6.260;2023-11-19T04:11:46;4.13;;;2.23;;
28481;SDS011;15703;49.588;6.260;2023-11-19T04:14:09;3.67;;;1.97;;
28481;SDS011;15703;49.588;6.260;2023-11-19T04:16:31;6.80;;;2.13;;
28481;SDS011;15703;49.588;6.260;2023-11-19T04:18:54;5.10;;;2.63;;
28481;SDS011;15703;49.588;6.260;2023-11-19T04:21:18;5.20;;;2.40;;
28481;SDS011;15703;49.588;6.260;2023-11-19T04:23:40;4.20;;;2.53;;
28481;SDS011;15703;49.588;6.260;2023-11-19T04:26:03;8.00;;;2.00;;
28481;SDS011;15703;49.588;6.260;2023-11-19T04:28:28;3.70;;;2.23;;
28481;SDS011;15703;49.588;6.260;2023-11-19T04:30:51;4.37;;;2.10;;
28481;SDS011;15703;49.588;6.260;2023-11-19T04:33:13;9.30;;;2.60;;
28481;SDS011;15703;49.588;6.260;2023-11-19T04:35:36;3.13;;;2.10;;
28481;SDS011;15703;49.588;6.260;2023-11-19T04:37:58;7.80;;;2.60;;
28481;SDS011;15703;49.588;6.260;2023-11-19T04:40:21;4.30;;;2.15;;
28481;SDS011;15703;49.588;6.260;2023-11-19T04:42:44;8.80;;;2.43;;
28481;SDS011;15703;49.588;6.260;2023-11-19T04:45:06;4.90;;;2.10;;
28481;SDS011;15703;49.588;6.260;2023-11-19T04:47:32;4.20;;;1.95;;
28481;SDS011;15703;49.588;6.260;2023-11-19T04:49:54;5.30;;;2.10;;
28481;SDS011;15703;49.588;6.260;2023-11-19T04:52:16;7.35;;;2.30;;
28481;SDS011;15703;49.588;6.260;2023-11-19T04:54:42;6.97;;;2.43;;
28481;SDS011;15703;49.588;6.260;2023-11-19T04:57:05;4.22;;;2.00;;
28481;SDS011;15703;49.588;6.260;2023-11-19T04:59:28;4.65;;;2.05;;
28481;SDS011;15703;49.588;6.260;2023-11-19T05:01:50;5.87;;;2.23;;
28481;SDS011;15703;49.588;6.260;2023-11-19T05:04:12;3.65;;;1.90;;
28481;SDS011;15703;49.588;6.260;2023-11-19T05:06:35;5.22;;;2.15;;
28481;SDS011;15703;49.588;6.260;2023-11-19T05:08:57;4.90;;;1.80;;
28481;SDS011;15703;49.588;6.260;2023-11-19T05:11:27;5.97;;;2.03;;
28481;SDS011;15703;49.588;6.260;2023-11-19T05:13:49;3.40;;;1.93;;
28481;SDS011;15703;49.588;6.260;2023-11-19T05:16:12;5.40;;;1.90;;
28481;SDS011;15703;49.588;6.260;2023-11-19T05:18:44;2.50;;;1.70;;
28481;SDS011;15703;49.588;6.260;2023-11-19T05:21:06;2.50;;;2.17;;
28481;SDS011;15703;49.588;6.260;2023-11-19T05:23:28;5.05;;;2.35;;
28481;SDS011;15703;49.588;6.260;2023-11-19T05:25:51;6.63;;;2.10;;
28481;SDS011;15703;49.588;6.260;2023-11-19T05:28:13;5.20;;;1.80;;
28481;SDS011;15703;49.588;6.260;2023-11-19T05:30:36;4.40;;;1.87;;
28481;SDS011;15703;49.588;6.260;2023-11-19T05:32:58;5.20;;;1.80;;
28481;SDS011;15703;49.588;6.260;2023-11-19T05:35:22;5.35;;;1.67;;
28481;SDS011;15703;49.588;6.260;2023-11-19T05:37:44;3.53;;;1.95;;
28481;SDS011;15703;49.588;6.260;2023-11-19T05:40:07;7.60;;;2.00;;
28481;SDS011;15703;49.588;6.260;2023-11-19T05:42:37;8.75;;;2.78;;
28481;SDS011;15703;49.588;6.260;2023-11-19T05:44:59;4.67;;;1.70;;
28481;SDS011;15703;49.588;6.260;2023-11-19T05:47:21;5.55;;;1.90;;
28481;SDS011;15703;49.588;6.260;2023-11-19T05:49:44;3.60;;;2.00;;
28481;SDS011;15703;49.588;6.260;2023-11-19T05:52:06;2.53;;;1.55;;
28481;SDS011;15703;49.588;6.260;2023-11-19T05:54:29;6.15;;;1.80;;
28481;SDS011;15703;49.588;6.260;2023-11-19T05:56:52;3.55;;;2.00;;
28481;SDS011;15703;49.588;6.260;2023-11-19T05:59:18;9.40;;;3.00;;
28481;SDS011;15703;49.588;6.260;2023-11-19T06:01:41;6.95;;;2.88;;
28481;SDS011;15703;49.588;6.260;2023-11-19T06:04:04;5.82;;;2.20;;
28481;SDS011;15703;49.588;6.260;2023-11-19T06:06:26;5.68;;;2.28;;
28481;SDS011;15703;49.588;6.260;2023-11-19T06:08:49;5.75;;;2.15;;
28481;SDS011;15703;49.588;6.260;2023-11-19T06:11:12;3.97;;;2.20;;
28481;SDS011;15703;49.588;6.260;2023-11-19T06:13:39;6.55;;;1.83;;
28481;SDS011;15703;49.588;6.260;2023-11-19T06:16:02;5.57;;;1.88;;
28481;SDS011;15703;49.588;6.260;2023-11-19T06:18:24;5.53;;;1.50;;
28481;SDS011;15703;49.588;6.260;2023-11-19T06:20:46;3.50;;;1.65;;
28481;SDS011;15703;49.588;6.260;2023-11-19T06:23:09;5.32;;;1.77;;
28481;SDS011;15703;49.588;6.260;2023-11-19T06:25:31;4.53;;;2.00;;
28481;SDS011;15703;49.588;6.260;2023-11-19T06:27:54;6.83;;;2.10;;
28481;SDS011;15703;49.588;6.260;2023-11-19T06:30:17;7.53;;;2.10;;
28481;SDS011;15703;49.588;6.260;2023-11-19T06:32:39;8.03;;;1.90;;
28481;SDS011;15703;49.588;6.260;2023-11-19T06:35:01;3.97;;;1.73;;
28481;SDS011;15703;49.588;6.260;2023-11-19T06:37:25;4.97;;;1.80;;
28481;SDS011;15703;49.588;6.260;2023-11-19T06:39:48;4.43;;;1.90;;
28481;SDS011;15703;49.588;6.260;2023-11-19T06:42:11;3.23;;;1.87;;
28481;SDS011;15703;49.588;6.260;2023-11-19T06:44:33;4.73;;;1.70;;
28481;SDS011;15703;49.588;6.260;2023-11-19T06:46:55;4.43;;;1.80;;
28481;SDS011;15703;49.588;6.260;2023-11-19T06:49:18;4.65;;;1.83;;
28481;SDS011;15703;49.588;6.260;2023-11-19T06:51:43;5.53;;;2.07;;
28481;SDS011;15703;49.588;6.260;2023-11-19T06:54:05;5.17;;;1.80;;
28481;SDS011;15703;49.588;6.260;2023-11-19T06:56:27;5.80;;;1.47;;
28481;SDS011;15703;49.588;6.260;2023-11-19T06:58:50;6.43;;;1.90;;
28481;SDS011;15703;49.588;6.260;2023-11-19T07:01:12;4.63;;;2.17;;
28481;SDS011;15703;49.588;6.260;2023-11-19T07:03:35;6.63;;;2.03;;
28481;SDS011;15703;49.588;6.260;2023-11-19T07:05:57;5.33;;;2.00;;
28481;SDS011;15703;49.588;6.260;2023-11-19T07:08:20;4.70;;;2.00;;
28481;SDS011;15703;49.588;6.260;2023-11-19T07:10:43;5.37;;;1.67;;
28481;SDS011;15703;49.588;6.260;2023-11-19T07:13:05;11.17;;;1.90;;
28481;SDS011;15703;49.588;6.260;2023-11-19T07:15:28;8.20;;;1.90;;
28481;SDS011;15703;49.588;6.260;2023-11-19T07:17:50;7.00;;;2.00;;
28481;SDS011;15703;49.588;6.260;2023-11-19T07:20:23;6.27;;;1.70;;
28481;SDS011;15703;49.588;6.260;2023-11-19T07:22:45;4.33;;;1.80;;
28481;SDS011;15703;49.588;6.260;2023-11-19T07:25:08;6.50;;;1.70;;
28481;SDS011;15703;49.588;6.260;2023-11-19T07:27:30;3.37;;;1.30;;
28481;SDS011;15703;49.588;6.260;2023-11-19T07:29:52;7.43;;;2.30;;
28481;SDS011;15703;49.588;6.260;2023-11-19T07:32:15;5.07;;;2.07;;
28481;SDS011;15703;49.588;6.260;2023-11-19T07:34:37;4.00;;;1.33;;
28481;SDS011;15703;49.588;6.260;2023-11-19T07:36:59;4.93;;;1.70;;
28481;SDS011;15703;49.588;6.260;2023-11-19T07:39:23;4.47;;;1.93;;
28481;SDS011;15703;49.588;6.260;2023-11-19T07:41:46;7.20;;;2.20;;
28481;SDS011;15703;49.588;6.260;2023-11-19T07:44:08;7.45;;;2.03;;
28481;SDS011;15703;49.588;6.260;2023-11-19T07:46:32;6.43;;;1.97;;
28481;SDS011;15703;49.588;6.260;2023-11-19T07:48:54;4.35;;;1.55;;
28481;SDS011;15703;49.588;6.260;2023-11-19T07:51:16;5.07;;;1.48;;
28481;SDS011;15703;49.588;6.260;2023-11-19T07:53:39;4.72;;;1.90;;
28481;SDS011;15703;49.588;6.260;2023-11-19T07:56:02;7.97;;;2.03;;
28481;SDS011;15703;49.588;6.260;2023-11-19T07:58:24;5.68;;;2.35;;
28481;SDS011;15703;49.588;6.260;2023-11-19T08:00:47;3.33;;;1.50;;
28481;SDS011;15703;49.588;6.260;2023-11-19T08:03:09;4.65;;;1.80;;
28481;SDS011;15703;49.588;6.260;2023-11-19T08:05:32;7.78;;;2.22;;
28481;SDS011;15703;49.588;6.260;2023-11-19T08:07:54;6.28;;;2.13;;
28481;SDS011;15703;49.588;6.260;2023-11-19T08:10:17;2.95;;;1.60;;
28481;SDS011;15703;49.588;6.260;2023-11-19T08:12:39;3.63;;;1.77;;
28481;SDS011;15703;49.588;6.260;2023-11-19T08:15:02;4.85;;;1.63;;
28481;SDS011;15703;49.588;6.260;2023-11-19T08:17:25;3.72;;;1.45;;
28481;SDS011;15703;49.588;6.260;2023-11-19T08:19:48;9.15;;;2.33;;
28481;SDS011;15703;49.588;6.260;2023-11-19T08:22:10;6.43;;;2.10;;
28481;SDS011;15703;49.588;6.260;2023-11-19T08:24:33;5.68;;;1.58;;
28481;SDS011;15703;49.588;6.260;2023-11-19T08:26:55;8.40;;;2.20;;
28481;SDS011;15703;49.588;6.260;2023-11-19T08:29:21;8.02;;;2.03;;
28481;SDS011;15703;49.588;6.260;2023-11-19T08:31:43;6.03;;;2.00;;
28481;SDS011;15703;49.588;6.260;2023-11-19T08:34:05;5.90;;;1.88;;
28481;SDS011;15703;49.588;6.260;2023-11-19T08:36:30;6.85;;;1.83;;
28481;SDS011;15703;49.588;6.260;2023-11-19T08:38:53;5.30;;;1.73;;
28481;SDS011;15703;49.588;6.260;2023-11-19T08:41:16;6.00;;;1.98;;
28481;SDS011;15703;49.588;6.260;2023-11-19T08:43:40;4.47;;;1.80;;
28481;SDS011;15703;49.588;6.260;2023-11-19T08:46:03;6.00;;;1.90;;
28481;SDS011;15703;49.588;6.260;2023-11-19T08:48:26;5.90;;;2.38;;
28481;SDS011;15703;49.588;6.260;2023-11-19T08:50:48;3.72;;;1.50;;
28481;SDS011;15703;49.588;6.260;2023-11-19T08:53:11;4.25;;;1.58;;
28481;SDS011;15703;49.588;6.260;2023-11-19T08:55:33;7.90;;;1.70;;
28481;SDS011;15703;49.588;6.260;2023-11-19T08:57:55;8.20;;;2.15;;
28481;SDS011;15703;49.588;6.260;2023-11-19T09:00:19;5.93;;;1.70;;
28481;SDS011;15703;49.588;6.260;2023-11-19T09:02:42;4.22;;;1.70;;
28481;SDS011;15703;49.588;6.260;2023-11-19T09:05:05;5.20;;;1.77;;
28481;SDS011;15703;49.588;6.260;2023-11-19T09:07:32;6.32;;;1.98;;
28481;SDS011;15703;49.588;6.260;2023-11-19T09:09:54;7.90;;;2.17;;
28481;SDS011;15703;49.588;6.260;2023-11-19T09:12:16;6.20;;;2.00;;
28481;SDS011;15703;49.588;6.260;2023-11-19T09:14:39;8.15;;;1.95;;
28481;SDS011;15703;49.588;6.260;2023-11-19T09:17:03;6.25;;;1.80;;
28481;SDS011;15703;49.588;6.260;2023-11-19T09:19:26;8.75;;;2.28;;
28481;SDS011;15703;49.588;6.260;2023-11-19T09:21:49;5.70;;;1.70;;
28481;SDS011;15703;49.588;6.260;2023-11-19T09:24:12;6.15;;;1.95;;
28481;SDS011;15703;49.588;6.260;2023-11-19T09:26:37;7.47;;;2.13;;
28481;SDS011;15703;49.588;6.260;2023-11-19T09:29:02;6.70;;;1.98;;
28481;SDS011;15703;49.588;6.260;2023-11-19T09:31:24;7.90;;;2.28;;
28481;SDS011;15703;49.588;6.260;2023-11-19T09:33:47;4.90;;;1.60;;
28481;SDS011;15703;49.588;6.260;2023-11-19T09:36:10;6.88;;;1.85;;
28481;SDS011;15703;49.588;6.260;2023-11-19T09:38:35;6.65;;;2.13;;
28481;SDS011;15703;49.588;6.260;2023-11-19T09:41:00;9.63;;;2.17;;
28481;SDS011;15703;49.588;6.260;2023-11-19T09:43:23;8.02;;;2.08;;
28481;SDS011;15703;49.588;6.260;2023-11-19T09:45:49;10.15;;;2.33;;
28481;SDS011;15703;49.588;6.260;2023-11-19T09:48:12;5.78;;;1.75;;
28481;SDS011;15703;49.588;6.260;2023-11-19T09:50:34;6.95;;;2.00;;
28481;SDS011;15703;49.588;6.260;2023-11-19T09:52:57;8.65;;;2.22;;
28481;SDS011;15703;49.588;6.260;2023-11-19T09:55:19;10.48;;;2.60;;
28481;SDS011;15703;49.588;6.260;2023-11-19T09:57:42;6.53;;;2.33;;
28481;SDS011;15703;49.588;6.260;2023-11-19T10:00:06;9.15;;;3.10;;
28481;SDS011;15703;49.588;6.260;2023-11-19T10:02:28;9.15;;;2.50;;
28481;SDS011;15703;49.588;6.260;2023-11-19T10:04:53;11.00;;;2.33;;
28481;SDS011;15703;49.588;6.260;2023-11-19T10:07:16;9.85;;;2.25;;
28481;SDS011;15703;49.588;6.260;2023-11-19T10:09:39;8.18;;;2.30;;
28481;SDS011;15703;49.588;6.260;2023-11-19T10:12:02;8.73;;;2.38;;
28481;SDS011;15703;49.588;6.260;2023-11-19T10:14:24;8.95;;;2.15;;
28481;SDS011;15703;49.588;6.260;2023-11-19T10:16:47;6.63;;;2.17;;
28481;SDS011;15703;49.588;6.260;2023-11-19T10:19:11;6.78;;;1.83;;
28481;SDS011;15703;49.588;6.260;2023-11-19T10:21:34;6.25;;;2.20;;
28481;SDS011;15703;49.588;6.260;2023-11-19T10:23:57;7.35;;;2.15;;
28481;SDS011;15703;49.588;6.260;2023-11-19T10:26:21;9.07;;;2.53;;
28481;SDS011;15703;49.588;6.260;2023-11-19T10:28:45;8.20;;;1.80;;
28481;SDS011;15703;49.588;6.260;2023-11-19T10:31:08;7.00;;;1.90;;
28481;SDS011;15703;49.588;6.260;2023-11-19T10:33:30;5.60;;;1.80;;
28481;SDS011;15703;49.588;6.260;2023-11-19T10:35:53;8.90;;;1.90;;
28481;SDS011;15703;49.588;6.260;2023-11-19T10:38:19;7.03;;;1.80;;
28481;SDS011;15703;49.588;6.260;2023-11-19T10:40:42;8.23;;;2.22;;
28481;SDS011;15703;49.588;6.260;2023-11-19T10:43:04;6.70;;;2.58;;
28481;SDS011;15703;49.588;6.260;2023-11-19T10:45:27;5.57;;;2.45;;
28481;SDS011;15703;49.588;6.260;2023-11-19T10:47:51;8.85;;;1.92;;
28481;SDS011;15703;49.588;6.260;2023-11-19T10:50:14;10.98;;;2.40;;
28481;SDS011;15703;49.588;6.260;2023-11-19T10:52:36;5.53;;;2.15;;
28481;SDS011;15703;49.588;6.260;2023-11-19T10:55:00;4.88;;;1.92;;
28481;SDS011;15703;49.588;6.260;2023-11-19T10:57:23;8.00;;;2.15;;
28481;SDS011;15703;49.588;6.260;2023-11-19T10:59:48;12.90;;;2.63;;
28481;SDS011;15703;49.588;6.260;2023-11-19T11:02:11;4.78;;;1.92;;
28481;SDS011;15703;49.588;6.260;2023-11-19T11:04:37;5.53;;;1.55;;
28481;SDS011;15703;49.588;6.260;2023-11-19T11:07:03;7.10;;;2.03;;
28481;SDS011;15703;49.588;6.260;2023-11-19T11:09:26;5.35;;;2.03;;
28481;SDS011;15703;49.588;6.260;2023-11-19T11:11:49;6.47;;;1.88;;
28481;SDS011;15703;49.588;6.260;2023-11-19T11:14:15;6.05;;;1.75;;
28481;SDS011;15703;49.588;6.260;2023-11-19T11:16:39;10.02;;;2.40;;
28481;SDS011;15703;49.588;6.260;2023-11-19T11:19:04;7.53;;;2.03;;
28481;SDS011;15703;49.588;6.260;2023-11-19T11:21:27;6.72;;;2.13;;
28481;SDS011;15703;49.588;6.260;2023-11-19T11:23:56;7.50;;;2.42;;
28481;SDS011;15703;49.588;6.260;2023-11-19T11:28:53;7.40;;;2.20;;
28481;SDS011;15703;49.588;6.260;2023-11-19T11:31:29;9.18;;;1.65;;
28481;SDS011;15703;49.588;6.260;2023-11-19T11:36:28;8.63;;;2.72;;
28481;SDS011;15703;49.588;6.260;2023-11-19T11:38:52;6.70;;;2.17;;
28481;SDS011;15703;49.588;6.260;2023-11-19T11:41:16;3.90;;;1.58;;
28481;SDS011;15703;49.588;6.260;2023-11-19T11:46:07;4.40;;;1.98;;
28481;SDS011;15703;49.588;6.260;2023-11-19T11:48:30;7.18;;;2.47;;
28481;SDS011;15703;49.588;6.260;2023-11-19T11:50:54;7.60;;;1.95;;
28481;SDS011;15703;49.588;6.260;2023-11-19T11:53:17;11.00;;;2.47;;
28481;SDS011;15703;49.588;6.260;2023-11-19T11:58:12;9.82;;;2.30;;
28481;SDS011;15703;49.588;6.260;2023-11-19T12:00:39;9.50;;;2.30;;
28481;SDS011;15703;49.588;6.260;2023-11-19T12:03:01;11.25;;;2.65;;
28481;SDS011;15703;49.588;6.260;2023-11-19T12:05:24;11.52;;;2.42;;
28481;SDS011;15703;49.588;6.260;2023-11-19T12:07:59;10.93;;;2.83;;
28481;SDS011;15703;49.588;6.260;2023-11-19T12:10:22;7.35;;;2.22;;
28481;SDS011;15703;49.588;6.260;2023-11-19T12:12:49;13.15;;;3.03;;
28481;SDS011;15703;49.588;6.260;2023-11-19T12:15:14;7.30;;;1.90;;
28481;SDS011;15703;49.588;6.260;2023-11-19T12:17:37;9.55;;;2.22;;
28481;SDS011;15703;49.588;6.260;2023-11-19T12:20:07;8.70;;;2.50;;
28481;SDS011;15703;49.588;6.260;2023-11-19T12:22:30;9.68;;;2.55;;
28481;SDS011;15703;49.588;6.260;2023-11-19T12:24:55;9.35;;;2.45;;
28481;SDS011;15703;49.588;6.260;2023-11-19T12:27:18;11.60;;;2.75;;
28481;SDS011;15703;49.588;6.260;2023-11-19T12:29:43;9.60;;;2.58;;
28481;SDS011;15703;49.588;6.260;2023-11-19T12:32:05;7.97;;;2.20;;
28481;SDS011;15703;49.588;6.260;2023-11-19T12:34:31;9.48;;;2.40;;
28481;SDS011;15703;49.588;6.260;2023-11-19T12:36:53;9.10;;;2.08;;
28481;SDS011;15703;49.588;6.260;2023-11-19T12:39:15;7.13;;;2.10;;
28481;SDS011;15703;49.588;6.260;2023-11-19T12:41:53;8.48;;;2.08;;
28481;SDS011;15703;49.588;6.260;2023-11-19T12:44:16;9.32;;;2.22;;
28481;SDS011;15703;49.588;6.260;2023-11-19T12:46:38;7.90;;;2.63;;
28481;SDS011;15703;49.588;6.260;2023-11-19T12:49:01;7.22;;;2.45;;
28481;SDS011;15703;49.588;6.260;2023-11-19T12:51:30;7.00;;;1.95;;
28481;SDS011;15703;49.588;6.260;2023-11-19T12:53:53;6.43;;;1.90;;
28481;SDS011;15703;49.588;6.260;2023-11-19T12:56:16;5.75;;;2.10;;
28481;SDS011;15703;49.588;6.260;2023-11-19T12:58:38;5.65;;;1.77;;
28481;SDS011;15703;49.588;6.260;2023-11-19T13:01:05;6.57;;;1.63;;
28481;SDS011;15703;49.588;6.260;2023-11-19T13:03:29;4.43;;;1.63;;
28481;SDS011;15703;49.588;6.260;2023-11-19T13:06:00;6.55;;;1.70;;
28481;SDS011;15703;49.588;6.260;2023-11-19T13:08:23;7.10;;;1.90;;
28481;SDS011;15703;49.588;6.260;2023-11-19T13:13:08;6.00;;;1.73;;
28481;SDS011;15703;49.588;6.260;2023-11-19T13:15:31;5.75;;;2.00;;
28481;SDS011;15703;49.588;6.260;2023-11-19T13:17:54;6.15;;;1.40;;
28481;SDS011;15703;49.588;6.260;2023-11-19T13:20:16;5.05;;;2.03;;
28481;SDS011;15703;49.588;6.260;2023-11-19T13:22:39;7.45;;;1.95;;
28481;SDS011;15703;49.588;6.260;2023-11-19T13:25:01;8.57;;;1.88;;
28481;SDS011;15703;49.588;6.260;2023-11-19T13:27:25;10.65;;;2.17;;
28481;SDS011;15703;49.588;6.260;2023-11-19T13:29:48;6.47;;;1.85;;
28481;SDS011;15703;49.588;6.260;2023-11-19T13:32:10;8.98;;;2.40;;
28481;SDS011;15703;49.588;6.260;2023-11-19T13:34:33;6.32;;;2.20;;
28481;SDS011;15703;49.588;6.260;2023-11-19T13:36:55;4.93;;;1.80;;
28481;SDS011;15703;49.588;6.260;2023-11-19T13:39:18;5.80;;;1.73;;
28481;SDS011;15703;49.588;6.260;2023-11-19T13:41:44;9.25;;;2.10;;
28481;SDS011;15703;49.588;6.260;2023-11-19T13:44:06;7.72;;;1.88;;
28481;SDS011;15703;49.588;6.260;2023-11-19T13:46:29;5.45;;;1.75;;
28481;SDS011;15703;49.588;6.260;2023-11-19T13:48:51;5.50;;;1.75;;
28481;SDS011;15703;49.588;6.260;2023-11-19T13:51:13;8.82;;;2.28;;
28481;SDS011;15703;49.588;6.260;2023-11-19T13:53:36;8.02;;;2.30;;
28481;SDS011;15703;49.588;6.260;2023-11-19T13:56:01;6.72;;;1.92;;
28481;SDS011;15703;49.588;6.260;2023-11-19T13:58:24;8.52;;;2.60;;
28481;SDS011;15703;49.588;6.260;2023-11-19T14:00:47;11.98;;;2.33;;
28481;SDS011;15703;49.588;6.260;2023-11-19T14:03:09;10.45;;;2.30;;
28481;SDS011;15703;49.588;6.260;2023-11-19T14:05:32;12.05;;;2.70;;
28481;SDS011;15703;49.588;6.260;2023-11-19T14:07:58;6.10;;;2.20;;
28481;SDS011;15703;49.588;6.260;2023-11-19T14:10:24;6.47;;;2.03;;
28481;SDS011;15703;49.588;6.260;2023-11-19T14:12:46;11.73;;;2.25;;
28481;SDS011;15703;49.588;6.260;2023-11-19T14:15:09;7.53;;;2.25;;
28481;SDS011;15703;49.588;6.260;2023-11-19T14:17:33;8.15;;;2.17;;
28481;SDS011;15703;49.588;6.260;2023-11-19T14:19:56;8.02;;;2.15;;
28481;SDS011;15703;49.588;6.260;2023-11-19T14:22:18;8.30;;;2.50;;
28481;SDS011;15703;49.588;6.260;2023-11-19T14:24:41;7.53;;;2.35;;
28481;SDS011;15703;49.588;6.260;2023-11-19T14:27:04;12.13;;;2.35;;
28481;SDS011;15703;49.588;6.260;2023-11-19T14:29:27;7.55;;;1.92;;
28481;SDS011;15703;49.588;6.260;2023-11-19T14:31:51;8.50;;;2.30;;
28481;SDS011;15703;49.588;6.260;2023-11-19T14:34:15;6.13;;;2.40;;
28481;SDS011;15703;49.588;6.260;2023-11-19T14:36:37;8.10;;;2.47;;